createdAt,value
2019-01-02T00:00:47.642Z,98617.70
2019-01-02T00:03:19.951Z,98611.61
2019-01-02T00:05:52.544Z,98619.34
2019-01-02T00:08:25.147Z,98613.80
2019-01-02T00:10:57.573Z,98610.70
2019-01-02T00:13:29.890Z,98614.37
2019-01-02T00:16:02.394Z,98614.33
2019-01-02T00:18:34.979Z,98606.94
2019-01-02T00:21:07.301Z,98612.42
2019-01-02T00:23:39.826Z,98601.63
2019-01-02T00:26:12.111Z,98596.70
2019-01-02T00:28:44.412Z,98593.47
2019-01-02T00:31:16.795Z,98589.84
2019-01-02T00:33:49.004Z,98577.95
2019-01-02T00:36:21.505Z,98586.11
2019-01-02T00:38:53.721Z,98592.38
2019-01-02T00:41:25.938Z,98591.13
2019-01-02T00:43:58.245Z,98602.86
2019-01-02T00:46:30.450Z,98606.52
2019-01-02T00:49:03.025Z,98616.78
2019-01-02T00:51:35.249Z,98622.33
2019-01-02T00:54:07.924Z,98616.05
2019-01-02T00:56:40.241Z,98615.91
2019-01-02T00:59:12.916Z,98634.83
2019-01-02T01:01:45.334Z,98649.54
2019-01-02T01:04:17.716Z,98660.39
2019-01-02T01:06:50.034Z,98645.75
2019-01-02T01:09:22.719Z,98648.51
2019-01-02T01:11:55.144Z,98660.41
2019-01-02T01:14:27.730Z,98678.20
2019-01-02T01:17:00.035Z,98667.55
2019-01-02T01:19:32.245Z,98685.17
2019-01-02T01:22:04.563Z,98689.82
2019-01-02T01:24:36.766Z,98693.30
2019-01-02T01:27:09.247Z,98701.17
2019-01-02T01:29:41.456Z,98705.19
2019-01-02T01:32:13.670Z,98716.97
2019-01-02T01:34:46.154Z,98722.69
2019-01-02T01:37:18.583Z,98730.51
2019-01-02T01:39:50.890Z,98728.25
2019-01-02T01:42:23.485Z,98729.52
2019-01-02T01:44:55.697Z,98737.00
2019-01-02T01:47:28.113Z,98736.16
2019-01-02T01:50:00.636Z,98737.13
2019-01-02T01:52:32.841Z,98716.38
2019-01-02T01:55:05.538Z,98726.52
2019-01-02T01:57:37.756Z,98720.88
2019-01-02T02:00:14.847Z,98724.11
2019-01-02T02:02:47.062Z,98724.89
2019-01-02T02:05:19.648Z,98727.52
2019-01-02T02:07:51.969Z,98715.94
2019-01-02T02:10:24.371Z,98720.92
2019-01-02T02:12:56.579Z,98712.30
2019-01-02T02:15:28.988Z,98716.53
2019-01-02T02:18:01.780Z,98713.04
2019-01-02T02:20:33.987Z,98720.14
2019-01-02T02:23:06.406Z,98711.58
2019-01-02T02:25:39.095Z,98703.78
2019-01-02T02:28:11.416Z,98698.59
2019-01-02T02:30:43.627Z,98699.70
2019-01-02T02:33:16.124Z,98698.33
2019-01-02T02:35:48.514Z,98694.54
2019-01-02T02:38:21.114Z,98696.97
2019-01-02T02:40:53.796Z,98697.53
2019-01-02T02:43:26.317Z,98693.40
2019-01-02T02:45:58.529Z,98706.59
2019-01-02T02:48:31.217Z,98704.63
2019-01-02T02:51:03.704Z,98701.05
2019-01-02T02:53:36.436Z,98697.87
2019-01-02T02:56:09.017Z,98701.40
2019-01-02T02:58:41.695Z,98700.57
2019-01-02T03:01:14.180Z,98706.93
2019-01-02T03:03:46.879Z,98700.66
2019-01-02T03:06:19.459Z,98695.32
2019-01-02T03:08:52.244Z,98692.80
2019-01-02T03:11:24.454Z,98691.42
2019-01-02T03:13:56.948Z,98693.55
2019-01-02T03:16:29.528Z,98702.99
2019-01-02T03:19:02.112Z,98701.78
2019-01-02T03:21:34.797Z,98698.45
2019-01-02T03:24:07.682Z,98691.13
2019-01-02T03:26:39.997Z,98700.78
2019-01-02T03:29:12.220Z,98711.33
2019-01-02T03:31:44.714Z,98712.13
2019-01-02T03:34:17.302Z,98709.15
2019-01-02T03:36:49.565Z,98710.64
2019-01-02T03:39:21.804Z,98710.77
2019-01-02T03:41:54.121Z,98719.00
2019-01-02T03:44:26.332Z,98710.38
2019-01-02T03:46:58.642Z,98711.66
2019-01-02T03:49:30.847Z,98719.09
2019-01-02T03:52:03.214Z,98716.31
2019-01-02T03:54:35.580Z,98717.48
2019-01-02T03:57:07.947Z,98723.34
2019-01-02T03:59:40.369Z,98713.55
2019-01-02T04:02:12.848Z,98712.77
2019-01-02T04:04:45.269Z,98719.60
2019-01-02T04:07:17.662Z,98717.02
2019-01-02T04:09:49.875Z,98713.41
2019-01-02T04:12:22.180Z,98713.20
2019-01-02T04:14:54.501Z,98706.84
2019-01-02T04:17:26.815Z,98706.29
2019-01-02T04:19:59.046Z,98705.14
2019-01-02T04:22:31.254Z,98710.80
2019-01-02T04:25:03.467Z,98705.46
2019-01-02T04:27:35.661Z,98698.31
2019-01-02T04:30:10.943Z,98696.55
2019-01-02T04:32:43.219Z,98702.64
2019-01-02T04:35:15.436Z,98695.03
2019-01-02T04:37:47.744Z,98705.45
2019-01-02T04:40:20.058Z,98711.34
2019-01-02T04:42:52.267Z,98713.67
2019-01-02T04:45:24.576Z,98708.25
2019-01-02T04:47:56.788Z,98702.91
2019-01-02T04:50:29.191Z,98709.41
2019-01-02T04:53:01.402Z,98711.34
2019-01-02T04:55:33.651Z,98720.77
2019-01-02T04:58:06.158Z,98714.14
2019-01-02T05:00:38.468Z,98715.09
2019-01-02T05:03:10.779Z,98723.84
2019-01-02T05:05:43.000Z,98721.81
2019-01-02T05:08:15.310Z,98720.58
2019-01-02T05:10:47.630Z,98727.95
2019-01-02T05:13:19.832Z,98724.03
2019-01-02T05:15:52.149Z,98726.31
2019-01-02T05:18:24.362Z,98731.95
2019-01-02T05:20:56.680Z,98738.05
2019-01-02T05:23:28.887Z,98735.29
2019-01-02T05:26:01.097Z,98735.42
2019-01-02T05:28:33.306Z,98743.58
2019-01-02T05:31:05.636Z,98734.63
2019-01-02T05:33:37.835Z,98744.87
2019-01-02T05:36:10.043Z,98745.91
2019-01-02T05:38:42.265Z,98743.10
2019-01-02T05:41:14.583Z,98749.38
2019-01-02T05:43:46.790Z,98750.89
2019-01-02T05:46:19.008Z,98768.54
2019-01-02T05:48:51.321Z,98774.73
2019-01-02T05:51:23.641Z,98786.59
2019-01-02T05:53:56.197Z,98787.72
2019-01-02T05:56:28.652Z,98782.75
2019-01-02T05:59:01.095Z,98791.08
2019-01-02T06:01:33.656Z,98789.11
2019-01-02T06:04:05.974Z,98789.70
2019-01-02T06:06:38.182Z,98792.41
2019-01-02T06:09:10.986Z,98792.24
2019-01-02T06:11:43.199Z,98791.53
2019-01-02T06:14:15.507Z,98789.64
2019-01-02T06:16:47.922Z,98787.64
2019-01-02T06:19:20.136Z,98805.23
2019-01-02T06:21:52.348Z,98812.37
2019-01-02T06:24:24.665Z,98813.21
2019-01-02T06:26:56.874Z,98812.24
2019-01-02T06:29:29.179Z,98805.02
2019-01-02T06:32:01.385Z,98809.41
2019-01-02T06:34:33.700Z,98814.66
2019-01-02T06:37:06.227Z,98813.58
2019-01-02T06:39:38.546Z,98824.63
2019-01-02T06:42:10.759Z,98821.73
2019-01-02T06:44:43.169Z,98821.81
2019-01-02T06:47:15.476Z,98825.89
2019-01-02T06:49:47.682Z,98822.28
2019-01-02T06:52:19.894Z,98827.67
2019-01-02T06:54:52.116Z,98830.14
2019-01-02T06:57:24.420Z,98825.27
2019-01-02T06:59:56.737Z,98827.42
2019-01-02T07:02:29.203Z,98835.47
2019-01-02T07:05:01.511Z,98846.52
2019-01-02T07:07:33.723Z,98842.94
2019-01-02T07:10:06.357Z,98844.97
2019-01-02T07:12:38.578Z,98852.13
2019-01-02T07:15:11.199Z,98855.66
2019-01-02T07:17:43.420Z,98844.00
2019-01-02T07:20:15.768Z,98850.97
2019-01-02T07:22:48.194Z,98850.05
2019-01-02T07:25:20.393Z,98853.70
2019-01-02T07:27:52.838Z,98854.54
2019-01-02T07:30:26.848Z,98867.19
2019-01-02T07:32:59.325Z,98868.52
2019-01-02T07:36:11.418Z,98875.14
2019-01-02T07:39:22.110Z,98864.92
2019-01-02T07:42:53.856Z,98874.75
2019-01-02T07:46:21.958Z,98890.66
2019-01-02T07:49:55.427Z,98896.02
2019-01-02T07:53:50.967Z,98894.39
2019-01-02T07:57:42.792Z,98897.02
2019-01-02T08:01:12.033Z,98896.55
2019-01-02T08:04:40.551Z,98897.91
2019-01-02T08:08:03.370Z,98903.70
2019-01-02T08:11:36.794Z,98908.83
2019-01-02T08:15:19.249Z,98904.67
2019-01-02T08:18:28.833Z,98901.40
2019-01-02T08:22:22.597Z,98909.17
2019-01-02T08:25:53.556Z,98907.20
2019-01-02T08:29:14.004Z,98902.66
2019-01-02T08:33:03.558Z,98920.09
2019-01-02T08:36:18.655Z,98918.24
2019-01-02T08:39:43.205Z,98916.00
2019-01-02T08:43:09.699Z,98921.53
2019-01-02T08:46:34.234Z,98922.92
2019-01-02T08:50:41.806Z,98925.64
2019-01-02T08:54:31.596Z,98922.52
2019-01-02T08:58:14.461Z,98908.90
2019-01-02T09:01:58.184Z,98913.70
2019-01-02T09:05:35.728Z,98913.30
2019-01-02T09:09:23.967Z,98922.87
2019-01-02T09:12:44.729Z,98923.51
2019-01-02T09:15:40.996Z,98922.14
2019-01-02T09:19:21.792Z,98926.84
2019-01-02T09:22:38.555Z,98928.99
2019-01-02T09:26:14.222Z,98935.99
2019-01-02T09:29:50.641Z,98934.09
2019-01-02T09:33:11.670Z,98943.39
2019-01-02T09:37:00.622Z,98933.71
2019-01-02T09:40:26.389Z,98937.33
2019-01-02T09:43:55.404Z,98947.55
2019-01-02T09:47:39.754Z,98938.56
2019-01-02T09:51:05.259Z,98935.77
2019-01-02T09:54:34.415Z,98941.23
2019-01-02T09:58:27.540Z,98938.53
2019-01-02T10:02:07.835Z,98936.69
2019-01-02T10:05:48.099Z,98935.58
2019-01-02T10:08:43.538Z,98934.44
2019-01-02T10:12:11.737Z,98923.16
2019-01-02T10:16:07.045Z,98931.59
2019-01-02T10:19:21.400Z,98921.82
2019-01-02T10:22:29.105Z,98915.46
2019-01-02T10:26:11.693Z,98915.91
2019-01-02T10:29:20.185Z,98910.02
2019-01-02T10:32:49.609Z,98916.36
2019-01-02T10:36:16.583Z,98901.38
2019-01-02T10:39:43.242Z,98901.46
2019-01-02T10:43:13.974Z,98894.62
2019-01-02T10:47:01.050Z,98885.94
2019-01-02T10:50:31.568Z,98870.12
2019-01-02T10:53:56.480Z,98882.47
2019-01-02T10:57:10.873Z,98873.95
2019-01-02T11:00:23.945Z,98857.84
2019-01-02T11:03:47.167Z,98859.02
2019-01-02T11:07:09.490Z,98872.34
2019-01-02T11:10:21.818Z,98892.80
2019-01-02T11:13:49.631Z,98921.98
2019-01-02T11:17:09.914Z,98907.47
2019-01-02T11:20:34.754Z,98924.05
2019-01-02T11:24:07.762Z,98922.97
2019-01-02T11:27:45.586Z,98927.80
2019-01-02T11:31:27.051Z,98921.81
2019-01-02T11:35:08.923Z,98914.50
2019-01-02T11:38:22.959Z,98911.56
2019-01-02T11:41:27.961Z,98893.11
2019-01-02T11:45:08.779Z,98904.00
2019-01-02T11:47:41.083Z,98888.36
2019-01-02T11:50:15.974Z,98884.80
2019-01-02T11:52:48.184Z,98878.25
2019-01-02T11:55:20.540Z,98878.41
2019-01-02T11:57:52.855Z,98877.94
2019-01-02T12:00:25.175Z,98880.72
2019-01-02T12:02:57.488Z,98893.70
2019-01-02T12:05:29.985Z,98884.55
2019-01-02T12:08:02.204Z,98892.91
2019-01-02T12:10:34.517Z,98883.56
2019-01-02T12:13:07.121Z,98894.20
2019-01-02T12:15:39.718Z,98909.66
2019-01-02T12:18:11.920Z,98917.69
2019-01-02T12:20:44.238Z,98929.78
2019-01-02T12:23:16.546Z,98941.92
2019-01-02T12:25:48.756Z,98941.40
2019-01-02T12:28:20.964Z,98937.89
2019-01-02T12:30:53.176Z,98933.66
2019-01-02T12:33:25.382Z,98941.35
2019-01-02T12:35:57.601Z,98934.87
2019-01-02T12:38:29.811Z,98936.80
2019-01-02T12:41:02.133Z,98938.41
2019-01-02T12:43:34.444Z,98948.05
2019-01-02T12:46:06.938Z,98941.61
2019-01-02T12:48:39.142Z,98940.41
2019-01-02T12:51:11.357Z,98935.86
2019-01-02T12:53:43.906Z,98921.67
2019-01-02T12:56:16.415Z,98911.39
2019-01-02T12:58:48.737Z,98896.39
2019-01-02T13:01:53.830Z,98896.18
2019-01-02T13:05:09.978Z,98902.94
2019-01-02T13:08:52.285Z,98915.56
2019-01-02T13:12:14.350Z,98938.00
2019-01-02T13:15:32.836Z,98933.53
2019-01-02T13:19:25.198Z,98948.97
2019-01-02T13:23:00.502Z,98951.38
2019-01-02T13:26:08.551Z,98970.08
2019-01-02T13:29:34.570Z,98981.78
2019-01-02T13:33:12.073Z,99003.55
2019-01-02T13:36:16.719Z,99018.28
2019-01-02T13:39:01.781Z,99033.85
2019-01-02T13:42:42.238Z,99009.34
2019-01-02T13:46:01.133Z,99008.00
2019-01-02T13:49:40.957Z,99007.16
2019-01-02T13:52:13.217Z,99011.41
2019-01-02T13:54:45.387Z,99011.68
2019-01-02T13:57:17.640Z,99018.00
2019-01-02T13:59:49.794Z,99018.98
2019-01-02T14:02:22.004Z,99018.06
2019-01-02T14:04:54.395Z,99035.22
2019-01-02T14:07:26.625Z,99041.58
2019-01-02T14:09:58.917Z,99039.57
2019-01-02T14:12:31.122Z,99052.60
2019-01-02T14:15:03.436Z,99043.33
2019-01-02T14:17:35.757Z,99039.42
2019-01-02T14:20:08.477Z,99044.59
2019-01-02T14:22:40.715Z,99048.16
2019-01-02T14:25:13.127Z,99046.44
2019-01-02T14:27:45.448Z,99053.19
2019-01-02T14:30:17.853Z,99060.72
2019-01-02T14:32:50.062Z,99073.63
2019-01-02T14:35:22.645Z,99076.22
2019-01-02T14:37:55.079Z,99083.95
2019-01-02T14:40:27.285Z,99082.90
2019-01-02T14:42:59.605Z,99091.65
2019-01-02T14:45:31.812Z,99099.08
2019-01-02T14:48:04.028Z,99096.75
2019-01-02T14:50:36.233Z,99099.30
2019-01-02T14:53:08.447Z,99097.83
2019-01-02T14:55:40.784Z,99103.16
2019-01-02T14:58:13.240Z,99103.75
2019-01-02T15:00:45.526Z,99105.62
2019-01-02T15:03:17.740Z,99108.25
2019-01-02T15:05:49.953Z,99113.20
2019-01-02T15:08:22.261Z,99119.56
2019-01-02T15:10:54.479Z,99129.64
2019-01-02T15:13:26.684Z,99146.65
2019-01-02T15:15:58.898Z,99143.51
2019-01-02T15:18:31.215Z,99146.55
2019-01-02T15:21:03.534Z,99151.41
2019-01-02T15:23:35.754Z,99151.70
2019-01-02T15:26:08.065Z,99157.81
2019-01-02T15:28:40.286Z,99147.28
2019-01-02T15:31:12.522Z,99159.41
2019-01-02T15:33:44.793Z,99154.58
2019-01-02T15:36:17.011Z,99156.09
2019-01-02T15:38:49.230Z,99162.56
2019-01-02T15:41:21.534Z,99170.09
2019-01-02T15:43:53.750Z,99172.84
2019-01-02T15:46:26.051Z,99168.11
2019-01-02T15:48:58.263Z,99177.66
2019-01-02T15:51:30.422Z,99182.97
2019-01-02T15:54:02.725Z,99193.23
2019-01-02T15:56:35.114Z,99193.23
2019-01-02T15:59:07.426Z,99195.13
2019-01-02T16:01:39.638Z,99202.81
2019-01-02T16:04:11.866Z,99209.13
2019-01-02T16:06:44.081Z,99218.81
2019-01-02T16:09:16.395Z,99213.36
2019-01-02T16:11:48.718Z,99215.77
2019-01-02T16:14:21.024Z,99222.32
2019-01-02T16:16:53.245Z,99232.13
2019-01-02T16:19:25.461Z,99236.06
2019-01-02T16:21:57.810Z,99241.04
2019-01-02T16:24:30.063Z,99238.95
2019-01-02T16:27:02.364Z,99250.88
2019-01-02T16:29:34.682Z,99251.48
2019-01-02T16:32:07.094Z,99256.77
2019-01-02T16:34:39.310Z,99258.88
2019-01-02T16:37:11.519Z,99260.50
2019-01-02T16:39:43.826Z,99253.05
2019-01-02T16:42:16.131Z,99253.09
2019-01-02T16:44:48.446Z,99255.81
2019-01-02T16:47:20.853Z,99258.27
2019-01-02T16:49:53.075Z,99260.09
2019-01-02T16:52:25.380Z,99267.41
2019-01-02T16:54:57.700Z,99271.60
2019-01-02T16:57:30.009Z,99273.12
2019-01-02T17:00:02.332Z,99271.98
2019-01-02T17:02:34.686Z,99267.80
2019-01-02T17:05:07.408Z,99267.11
2019-01-02T17:07:39.625Z,99268.73
2019-01-02T17:10:13.412Z,99265.28
2019-01-02T17:12:45.627Z,99268.33
2019-01-02T17:15:17.937Z,99272.59
2019-01-02T17:17:50.305Z,99279.41
2019-01-02T17:20:22.549Z,99282.05
2019-01-02T17:22:54.754Z,99285.24
2019-01-02T17:25:27.023Z,99289.91
2019-01-02T17:27:59.238Z,99287.63
2019-01-02T17:30:31.452Z,99288.98
2019-01-02T17:33:03.662Z,99292.16
2019-01-02T17:35:35.880Z,99297.23
2019-01-02T17:38:08.197Z,99301.23
2019-01-02T17:40:40.604Z,99306.98
2019-01-02T17:43:12.801Z,99307.71
2019-01-02T17:45:45.014Z,99317.20
2019-01-02T17:48:17.222Z,99316.63
2019-01-02T17:50:49.645Z,99315.55
2019-01-02T17:53:21.984Z,99319.67
2019-01-02T17:55:54.401Z,99323.03
2019-01-02T17:58:26.619Z,99321.35
2019-01-02T18:00:58.984Z,99318.53
2019-01-02T18:03:31.288Z,99321.95
2019-01-02T18:06:03.618Z,99317.27
2019-01-02T18:08:35.827Z,99321.13
2019-01-02T18:11:08.051Z,99322.69
2019-01-02T18:13:40.273Z,99324.14
2019-01-02T18:16:12.696Z,99325.64
2019-01-02T18:18:45.171Z,99328.72
2019-01-02T18:21:17.400Z,99330.87
2019-01-02T18:23:49.623Z,99332.38
2019-01-02T18:26:21.884Z,99337.03
2019-01-02T18:28:54.094Z,99338.08
2019-01-02T18:31:26.320Z,99339.63
2019-01-02T18:33:58.537Z,99342.14
2019-01-02T18:36:30.850Z,99347.05
2019-01-02T18:39:03.760Z,99343.55
2019-01-02T18:41:35.974Z,99348.49
2019-01-02T18:44:08.291Z,99347.66
2019-01-02T18:46:40.607Z,99358.51
2019-01-02T18:49:12.916Z,99361.98
2019-01-02T18:51:45.127Z,99371.42
2019-01-02T18:54:17.342Z,99368.75
2019-01-02T18:56:50.577Z,99363.11
2019-01-02T18:59:22.797Z,99360.89
2019-01-02T19:01:55.016Z,99364.86
2019-01-02T19:04:27.232Z,99370.05
2019-01-02T19:06:59.459Z,99371.64
2019-01-02T19:09:31.674Z,99377.58
2019-01-02T19:12:03.895Z,99382.44
2019-01-02T19:14:36.108Z,99385.12
2019-01-02T19:17:08.325Z,99385.96
2019-01-02T19:19:40.537Z,99386.25
2019-01-02T19:22:12.758Z,99386.23
2019-01-02T19:24:44.968Z,99387.00
2019-01-02T19:27:17.179Z,99382.31
2019-01-02T19:29:49.387Z,99390.12
2019-01-02T19:32:21.698Z,99389.30
2019-01-02T19:34:54.090Z,99393.94
2019-01-02T19:37:26.400Z,99390.03
2019-01-02T19:39:58.616Z,99397.23
2019-01-02T19:42:30.834Z,99393.20
2019-01-02T19:45:03.146Z,99391.54
2019-01-02T19:47:35.370Z,99390.45
2019-01-02T19:50:08.913Z,99394.35
2019-01-02T19:52:41.235Z,99386.13
2019-01-02T19:55:13.692Z,99396.06
2019-01-02T19:57:45.901Z,99399.87
2019-01-02T20:00:18.212Z,99401.30
2019-01-02T20:02:50.433Z,99399.81
2019-01-02T20:05:22.949Z,99400.66
2019-01-02T20:07:55.168Z,99399.21
2019-01-02T20:10:27.480Z,99405.69
2019-01-02T20:12:59.713Z,99411.36
2019-01-02T20:15:31.920Z,99412.44
2019-01-02T20:18:04.340Z,99413.36
2019-01-02T20:20:36.544Z,99413.27
2019-01-02T20:23:08.764Z,99410.56
2019-01-02T20:25:40.972Z,99417.47
2019-01-02T20:28:13.294Z,99415.80
2019-01-02T20:30:45.514Z,99419.89
2019-01-02T20:33:17.738Z,99415.00
2019-01-02T20:35:49.942Z,99407.73
2019-01-02T20:38:22.255Z,99407.81
2019-01-02T20:40:54.641Z,99403.55
2019-01-02T20:43:27.000Z,99403.16
2019-01-02T20:45:59.304Z,99404.75
2019-01-02T20:48:31.524Z,99406.41
2019-01-02T20:51:03.751Z,99407.30
2019-01-02T20:53:35.956Z,99407.98
2019-01-02T20:56:08.410Z,99409.31
2019-01-02T20:58:40.870Z,99413.10
2019-01-02T21:01:13.130Z,99406.66
2019-01-02T21:03:45.346Z,99406.64
2019-01-02T21:06:17.554Z,99409.21
2019-01-02T21:08:49.880Z,99407.41
2019-01-02T21:11:22.179Z,99400.41
2019-01-02T21:13:54.400Z,99406.30
2019-01-02T21:16:26.809Z,99404.42
2019-01-02T21:18:59.025Z,99401.20
2019-01-02T21:21:31.335Z,99405.86
2019-01-02T21:24:03.650Z,99406.78
2019-01-02T21:26:35.860Z,99408.61
2019-01-02T21:29:08.072Z,99408.40
2019-01-02T21:31:40.388Z,99412.63
2019-01-02T21:34:12.604Z,99414.84
2019-01-02T21:36:44.912Z,99414.36
2019-01-02T21:39:17.133Z,99414.14
2019-01-02T21:41:49.349Z,99420.64
2019-01-02T21:44:21.563Z,99416.05
2019-01-02T21:46:54.899Z,99419.14
2019-01-02T21:49:27.115Z,99420.08
2019-01-02T21:51:59.321Z,99417.87
2019-01-02T21:54:31.544Z,99423.11
2019-01-02T21:57:04.059Z,99426.66
2019-01-02T21:59:36.259Z,99421.87
2019-01-02T22:02:08.777Z,99423.04
2019-01-02T22:04:41.018Z,99424.75
2019-01-02T22:07:13.324Z,99427.36
2019-01-02T22:09:45.546Z,99434.47
2019-01-02T22:12:17.863Z,99436.47
2019-01-02T22:14:50.180Z,99437.57
2019-01-02T22:17:22.386Z,99431.01
2019-01-02T22:19:54.694Z,99440.23
2019-01-02T22:22:27.003Z,99437.59
2019-01-02T22:24:59.216Z,99434.64
2019-01-02T22:27:31.428Z,99437.74
2019-01-02T22:30:03.640Z,99446.02
2019-01-02T22:32:35.848Z,99448.00
2019-01-02T22:35:08.576Z,99440.97
2019-01-02T22:37:40.780Z,99447.95
2019-01-02T22:40:13.197Z,99450.04
2019-01-02T22:42:45.405Z,99441.02
2019-01-02T22:45:17.618Z,99444.81
2019-01-02T22:47:50.024Z,99446.48
2019-01-02T22:50:22.334Z,99450.19
2019-01-02T22:52:54.547Z,99447.66
2019-01-02T22:55:26.809Z,99447.98
2019-01-02T22:57:59.010Z,99450.05
2019-01-02T23:00:48.559Z,99456.14
2019-01-02T23:03:45.573Z,99457.41
2019-01-02T23:06:35.088Z,99464.92
2019-01-02T23:09:18.388Z,99472.44
2019-01-02T23:12:27.361Z,99475.61
2019-01-02T23:15:27.373Z,99471.41
2019-01-02T23:18:21.154Z,99468.52
2019-01-02T23:21:21.093Z,99472.23
2019-01-02T23:24:10.715Z,99477.45
2019-01-02T23:27:19.869Z,99481.32
2019-01-02T23:30:10.854Z,99478.82
2019-01-02T23:33:01.861Z,99484.54
2019-01-02T23:35:59.569Z,99489.59
2019-01-02T23:38:54.951Z,99491.63
2019-01-02T23:41:45.953Z,99497.83
2019-01-02T23:44:43.079Z,99496.63
2019-01-02T23:47:52.063Z,99499.63
2019-01-02T23:50:41.814Z,99503.63
2019-01-02T23:53:35.811Z,99499.49
2019-01-02T23:56:25.591Z,99499.17
2019-01-02T23:59:12.759Z,99501.41
